Artesia ASC

2021-06-24 19:25:00

  • imperial
Date Time Air Temperature Relative Humidity Dewpoint Windchill Heat Index Wind Speed Wind Dir. Rain Solar Radiation Soil Temperature
2m 2m 3m 3m 10cm
US/Mountain F % F F F MPH deg in MJ/m^2 F
max avg avg
2021-06-23 19:40:00 89.9 27.1 51.6 89.9 89.9 19.9 21.9 17.3 160.1 154.1 0.00 0.0180000 91.3
2021-06-23 19:45:00 89.7 27.5 51.8 89.7 89.7 17.8 23.3 18.4 149.0 155.2 0.00 0.0150000 91.3
2021-06-23 19:50:00 89.6 28.0 52.2 89.6 89.6 14.6 21.5 17.3 150.5 154.3 0.00 0.0130000 91.2
2021-06-23 19:55:00 89.6 29.3 53.4 89.6 89.6 15.1 19.9 16.6 168.7 159.9 0.00 0.0100000 91.1
2021-06-23 20:00:00 89.4 29.8 53.8 89.4 89.4 11.9 18.9 15.5 141.9 153.5 0.00 0.0070000 91.1
2021-06-23 20:05:00 89.5 29.3 53.3 89.5 89.5 16.9 18.7 15.4 157.1 153.9 0.00 0.0040000 91.0
2021-06-23 20:10:00 89.7 28.9 53.2 89.7 89.7 10.6 19.4 14.8 140.7 149.4 0.00 0.0020000 91.0
2021-06-23 20:15:00 89.6 29.3 53.5 89.6 89.6 13.9 19.0 14.2 149.2 151.1 0.00 0.0010000 90.9
2021-06-23 20:20:00 89.5 30.1 54.1 89.5 89.5 14.4 16.2 13.9 165.7 158.1 0.00 0.0000000 90.8
2021-06-23 20:25:00 88.9 31.8 55.1 88.9 88.9 12.2 16.9 13.8 168.3 182.3 0.00 0.0000000 90.7
2021-06-23 20:30:00 88.2 34.2 56.4 88.2 88.2 11.7 14.6 12.0 182.3 181.4 0.00 0.0000000 90.7
2021-06-23 20:35:00 87.9 36.1 57.7 87.9 87.9 13.1 20.1 14.3 182.3 176.2 0.00 0.0000000 90.6
2021-06-23 20:40:00 87.6 36.9 58.1 87.6 87.6 14.2 14.2 12.4 174.7 181.7 0.00 0.0000000 90.5
2021-06-23 20:45:00 87.4 36.6 57.6 87.4 87.4 10.1 14.6 11.3 182.4 178.2 0.00 0.0000000 90.5
2021-06-23 20:50:00 87.4 36.9 57.9 87.4 87.4 10.3 14.2 10.4 173.8 183.1 0.00 0.0000000 90.4
2021-06-23 20:55:00 87.4 35.2 56.5 87.4 87.4 10.5 11.5 9.4 166.1 172.6 0.00 0.0000000 90.3
2021-06-23 21:00:00 88.2 32.4 55.0 88.2 88.2 10.5 13.5 10.8 189.4 175.5 0.00 0.0000000 90.3
2021-06-23 21:05:00 88.9 29.4 52.9 88.9 88.9 13.0 14.0 11.5 165.9 163.7 0.00 0.0000000 90.2
2021-06-23 21:10:00 89.9 26.3 50.8 89.9 89.9 9.2 13.0 9.9 156.5 169.6 0.00 0.0000000 90.2
2021-06-23 21:15:00 90.3 24.2 48.8 90.3 90.3 10.3 12.8 10.0 167.4 166.3 0.00 0.0000000 90.1
2021-06-23 21:20:00 90.6 24.1 48.9 90.6 90.6 7.2 13.1 9.4 176.8 176.2 0.00 0.0000000 90.0
2021-06-23 21:25:00 89.6 25.5 49.7 89.6 89.6 7.1 8.5 6.8 175.8 187.2 0.00 0.0000000 89.9
2021-06-23 21:30:00 89.6 25.4 49.6 89.6 89.6 6.7 10.3 6.9 184.5 182.5 0.00 0.0000000 89.9
2021-06-23 21:35:00 89.0 26.7 50.4 89.0 89.0 5.3 6.5 5.2 225.3 195.9 0.00 0.0000000 89.8
2021-06-23 21:40:00 88.1 28.1 51.0 88.1 88.1 4.9 6.3 4.6 215.3 222.4 0.00 0.0000000 89.7
2021-06-23 21:45:00 88.0 27.9 50.8 88.0 88.0 4.7 7.4 5.2 212.3 216.0 0.00 0.0000000 89.7
2021-06-23 21:50:00 88.0 28.1 51.0 88.0 88.0 6.5 7.1 5.6 216.6 216.1 0.00 0.0000000 89.6
2021-06-23 21:55:00 88.3 27.5 50.6 88.3 88.3 8.0 8.0 6.4 196.7 203.4 0.00 0.0000000 89.5
2021-06-23 22:00:00 89.1 26.6 50.4 89.1 89.1 8.0 10.5 8.4 182.4 186.2 0.00 0.0000000 89.5
2021-06-23 22:05:00 90.2 27.9 52.6 90.2 90.2 11.3 16.9 12.8 160.9 172.7 0.00 0.0000000 89.4
2021-06-23 22:10:00 90.1 29.8 54.3 90.1 90.1 10.6 16.4 12.7 167.9 174.3 0.00 0.0000000 89.4
2021-06-23 22:15:00 90.6 31.4 56.2 90.6 90.6 20.6 20.8 16.2 174.2 172.6 0.00 0.0000000 89.3
2021-06-23 22:20:00 90.1 33.9 57.8 90.1 90.1 14.4 28.0 19.2 161.2 169.4 0.00 0.0000000 89.2
2021-06-23 22:25:00 88.7 37.3 59.3 88.7 88.7 15.8 20.1 16.6 197.6 176.4 0.00 0.0000000 89.2
2021-06-24 04:10:00 75.5 64.4 62.7 75.5 75.5 11.5 12.4 10.3 142.9 146.3 0.00 0.0000000 86.0
2021-06-24 04:15:00 75.3 64.5 62.5 75.3 75.3 8.7 11.7 9.9 151.3 145.3 0.00 0.0000000 85.9
2021-06-24 04:20:00 75.1 64.7 62.4 75.1 75.1 10.5 12.1 9.8 152.5 144.8 0.00 0.0000000 85.9
2021-06-24 04:25:00 75.2 65.1 62.7 75.2 75.2 9.7 12.1 9.9 152.7 143.2 0.00 0.0000000 85.8
2021-06-24 04:30:00 74.8 65.5 62.5 74.8 74.8 9.4 11.0 9.1 151.0 141.5 0.00 0.0000000 85.8
2021-06-24 04:35:00 74.9 65.5 62.6 74.9 74.9 9.4 11.9 10.0 137.5 138.8 0.00 0.0000000 85.7
2021-06-24 04:40:00 74.8 65.7 62.6 74.8 74.8 12.2 12.2 10.1 157.4 145.2 0.00 0.0000000 85.7
2021-06-24 04:45:00 74.6 65.9 62.5 74.6 74.6 9.2 11.9 9.7 142.1 145.0 0.00 0.0000000 85.7
2021-06-24 04:50:00 74.7 66.3 62.7 74.7 74.7 11.7 13.7 10.9 138.5 146.4 0.00 0.0000000 85.6
2021-06-24 04:55:00 74.5 66.5 62.7 74.5 74.5 9.4 13.0 10.9 149.9 146.6 0.00 0.0000000 85.6
2021-06-24 05:00:00 74.5 66.8 62.7 74.5 74.5 8.5 12.2 10.4 130.0 146.4 0.00 0.0000000 85.5
2021-06-24 05:05:00 74.3 67.0 62.7 74.3 74.3 8.5 12.4 10.3 144.0 141.9 0.00 0.0000000 85.5
2021-06-24 05:10:00 74.2 67.5 62.7 74.2 74.2 10.8 12.1 10.1 152.2 142.1 0.00 0.0000000 85.5
2021-06-24 05:15:00 73.9 67.8 62.6 73.9 73.9 11.2 12.6 10.8 145.6 142.1 0.00 0.0000000 85.4
2021-06-24 05:20:00 74.0 68.4 63.0 74.0 74.0 9.2 11.0 9.6 149.1 141.5 0.00 0.0000000 85.3
2021-06-24 05:25:00 73.7 68.3 62.6 73.7 73.7 6.5 11.3 9.0 131.7 141.5 0.00 0.0000000 85.3
2021-06-24 05:30:00 73.7 68.5 62.7 73.7 73.7 7.2 10.1 8.1 141.4 140.3 0.00 0.0000000 85.3
2021-06-24 05:35:00 73.6 69.4 63.0 73.6 73.6 8.5 9.9 7.8 138.3 141.7 0.00 0.0000000 85.2
2021-06-24 05:40:00 73.4 69.3 62.7 73.4 73.4 6.2 8.7 6.6 143.8 143.3 0.00 0.0010000 85.2
2021-06-24 05:45:00 73.4 69.3 62.7 73.4 73.4 5.6 7.8 5.2 139.3 146.0 0.00 0.0020000 85.1
2021-06-24 05:50:00 73.0 70.3 62.7 73.0 73.0 3.1 7.4 5.5 145.7 149.5 0.00 0.0030000 85.1
2021-06-24 05:55:00 72.7 70.6 62.6 72.7 72.7 3.0 4.2 3.6 153.6 151.2 0.00 0.0050000 85.0
2021-06-24 06:00:00 72.6 71.2 62.7 72.6 72.6 5.3 5.5 4.2 134.6 141.6 0.00 0.0100000 85.0
2021-06-24 06:05:00 72.8 71.4 63.0 72.8 72.8 4.0 5.8 4.7 130.5 135.6 0.00 0.0170000 85.0
2021-06-24 06:10:00 72.2 71.9 62.7 72.2 72.2 3.5 4.4 3.8 152.1 148.9 0.00 0.0230000 84.9
2021-06-24 06:15:00 72.5 71.6 62.8 72.5 72.5 2.8 4.2 3.6 179.1 163.2 0.00 0.0320000 84.9
2021-06-24 06:20:00 72.5 72.7 63.2 72.5 72.5 2.4 3.1 1.2 344.9 246.3 0.00 0.0480000 84.8
2021-06-24 06:25:00 72.8 71.9 63.2 72.8 72.8 4.7 5.1 4.1 317.8 335.5 0.00 0.0440000 84.8
2021-06-24 06:30:00 72.7 71.8 63.1 72.7 72.7 6.5 7.6 6.4 332.0 325.0 0.00 0.0400000 84.7
2021-06-24 06:35:00 73.4 70.0 63.0 73.4 73.4 3.8 6.5 4.7 333.5 337.8 0.00 0.0480000 84.7
2021-06-24 06:40:00 73.7 70.3 63.4 73.7 73.7 1.2 3.5 1.1 50.7 318.2 0.00 0.0440000 84.7
2021-06-24 06:45:00 74.2 68.4 63.1 74.2 74.2 1.5 2.8 1.8 10.7 32.1 0.00 0.0440000 84.7
2021-06-24 06:50:00 74.2 68.8 63.3 74.2 74.2 0.0 2.2 1.3 351.1 322.6 0.00 0.0750000 84.6
2021-06-24 06:55:00 74.4 68.3 63.2 74.4 74.4 0.0 0.0 0.0 155.4 0.0 0.00 0.0410000 84.5
2021-06-24 07:00:00 74.0 69.8 63.6 74.0 74.0 0.0 0.0 0.0 207.2 0.0 0.00 0.0410000 84.5
2021-06-24 07:05:00 73.9 70.0 63.6 73.9 73.9 1.5 1.5 0.1 342.7 337.4 0.00 0.0400000 84.5
2021-06-24 07:10:00 74.0 69.6 63.4 74.0 74.0 0.8 1.7 0.9 58.0 3.2 0.00 0.0430000 84.4
2021-06-24 07:15:00 74.2 68.0 63.0 74.2 74.2 2.4 2.4 1.7 105.0 82.9 0.00 0.0500000 84.4
2021-06-24 07:20:00 74.5 69.2 63.8 74.5 74.5 3.7 4.0 3.4 107.9 102.4 0.00 0.0560000 84.4
2021-06-24 07:25:00 74.0 70.1 63.6 74.0 74.0 3.8 3.8 3.5 95.4 100.4 0.00 0.0960000 84.3
2021-06-24 07:30:00 74.4 69.3 63.6 74.4 74.4 2.6 4.9 3.7 59.9 88.6 0.00 0.1570000 84.3
2021-06-24 07:35:00 75.4 67.1 63.7 75.4 75.4 2.4 4.2 2.8 60.5 67.8 0.00 0.2510000 84.3
2021-06-24 07:40:00 76.0 66.6 64.1 76.0 76.0 3.7 4.6 3.4 142.0 98.7 0.00 0.2570000 84.2
2021-06-24 07:45:00 76.2 66.5 64.2 76.2 76.2 5.3 6.5 4.6 177.9 155.1 0.00 0.2740000 84.2
2021-06-24 07:50:00 76.8 65.6 64.4 76.8 76.8 5.5 7.8 5.9 125.9 143.3 0.00 0.2930000 84.2
2021-06-24 07:55:00 77.1 64.4 64.2 77.1 77.1 7.8 9.2 6.7 157.1 152.4 0.00 0.3180000 84.1
2021-06-24 08:00:00 77.4 65.3 64.8 77.4 77.4 4.7 10.1 7.4 148.4 155.7 0.00 0.3430000 84.1
2021-06-24 08:05:00 77.8 64.3 64.8 77.8 77.8 5.6 8.1 6.0 178.7 158.8 0.00 0.2810000 84.1
2021-06-24 08:10:00 77.5 64.7 64.7 77.5 77.5 4.6 8.5 6.4 158.8 164.2 0.00 0.2980000 84.0
2021-06-24 08:15:00 78.3 61.9 64.2 78.3 78.3 6.9 8.1 5.6 161.1 173.9 0.00 0.3770000 84.0
2021-06-24 08:20:00 78.4 62.6 64.6 78.4 78.4 7.8 8.3 6.6 184.8 170.3 0.00 0.3900000 84.0
2021-06-24 08:25:00 78.7 62.2 64.7 78.7 78.7 7.2 9.0 5.6 146.4 169.1 0.00 0.4030000 83.9
2021-06-24 08:30:00 79.2 60.7 64.5 79.2 79.2 6.9 9.9 6.3 178.1 175.3 0.00 0.4230000 83.9
2021-06-24 08:35:00 79.1 61.8 64.9 79.1 79.1 4.0 9.2 5.6 169.7 173.9 0.00 0.4430000 83.9
2021-06-24 08:40:00 79.6 59.5 64.3 79.6 79.6 6.7 9.2 7.5 137.3 157.5 0.00 0.4610000 83.9
2021-06-24 08:45:00 80.0 60.4 65.1 80.0 81.9 6.7 9.0 6.3 161.4 161.3 0.00 0.4840000 83.9
2021-06-24 08:50:00 80.4 59.6 65.1 80.4 82.3 5.5 8.3 6.4 190.5 184.3 0.00 0.5000000 83.9
2021-06-24 08:55:00 80.5 59.3 65.0 80.5 82.4 4.6 7.4 5.4 144.4 201.3 0.00 0.5210000 83.9
2021-06-24 09:00:00 81.5 55.7 64.1 81.5 83.0 5.5 7.1 5.5 149.5 147.3 0.00 0.5510000 83.9
2021-06-24 09:05:00 81.9 55.6 64.5 81.9 83.5 3.0 7.4 4.6 191.7 161.0 0.00 0.5830000 83.9
2021-06-24 09:10:00 81.8 55.1 64.1 81.8 83.3 2.4 6.9 4.3 165.0 182.2 0.00 0.6060000 83.9
2021-06-24 09:15:00 82.4 52.8 63.5 82.4 83.7 2.2 7.6 4.8 187.5 197.6 0.00 0.6910000 83.9
2021-06-24 09:20:00 83.5 50.2 63.0 83.5 84.5 4.0 5.6 2.8 193.9 197.9 0.00 0.7360000 83.8
2021-06-24 09:25:00 83.3 50.3 62.9 83.3 84.3 2.2 4.4 2.8 150.8 135.4 0.00 0.4080000 83.9
2021-06-24 09:30:00 83.3 51.1 63.4 83.3 84.5 2.8 3.8 2.7 205.9 149.8 0.00 0.4720000 83.9
2021-06-24 09:35:00 84.8 47.4 62.6 84.8 85.6 4.7 4.7 1.7 318.9 344.3 0.00 0.4000000 83.9
2021-06-24 09:40:00 84.4 46.4 61.7 84.4 84.9 5.8 5.8 3.1 336.9 313.5 0.00 0.4400000 83.9
2021-06-24 09:45:00 83.0 47.1 60.8 83.0 83.4 4.0 6.5 4.2 324.2 321.3 0.00 0.4700000 83.9
2021-06-24 09:50:00 83.8 46.4 61.1 83.8 84.2 2.4 4.6 2.8 338.3 304.4 0.00 0.3960000 83.9
2021-06-24 09:55:00 84.3 45.9 61.2 84.3 84.6 2.2 4.4 3.0 220.1 305.1 0.00 0.4100000 83.9
2021-06-24 10:00:00 84.2 47.7 62.2 84.2 84.9 3.5 4.0 3.0 254.0 240.4 0.00 0.4020000 83.9
2021-06-24 10:05:00 84.3 45.2 60.8 84.3 84.5 1.9 3.3 2.3 255.2 251.8 0.00 0.3240000 83.9
2021-06-24 10:10:00 85.1 45.1 61.4 85.1 85.4 3.8 4.0 2.2 296.8 288.1 0.00 0.2810000 84.0
2021-06-24 10:15:00 84.8 42.9 59.8 84.8 84.7 1.9 5.5 2.5 296.7 315.0 0.00 0.2760000 84.0
2021-06-24 10:20:00 85.6 41.9 59.9 85.6 85.4 0.0 2.2 1.2 43.4 292.0 0.00 0.2780000 84.0
2021-06-24 10:25:00 85.6 43.0 60.5 85.6 85.6 2.8 4.0 2.5 164.7 142.9 0.00 0.2860000 84.1
2021-06-24 10:30:00 85.2 45.4 61.7 85.2 85.7 3.1 4.2 3.0 191.9 151.4 0.00 0.3060000 84.1
2021-06-24 10:35:00 85.6 46.1 62.5 85.6 86.3 2.1 4.0 2.3 178.2 175.2 0.00 0.3140000 84.1
2021-06-24 10:40:00 85.2 42.2 59.7 85.2 85.0 3.0 4.7 3.2 110.6 119.5 0.00 0.3010000 84.2
2021-06-24 10:45:00 85.6 41.3 59.4 85.6 85.2 1.2 3.5 1.9 87.0 119.5 0.00 0.3760000 84.3
2021-06-24 10:50:00 86.0 40.7 59.3 86.0 85.6 4.4 4.6 3.2 144.4 107.4 0.00 1.0040000 84.3
2021-06-24 10:55:00 88.6 42.6 63.0 88.6 89.5 3.7 3.8 2.2 243.4 137.7 0.00 0.6560000 84.3
2021-06-24 11:00:00 87.0 40.1 59.8 87.0 86.6 3.5 5.5 4.0 311.6 302.1 0.00 0.8420000 84.4
2021-06-24 11:05:00 88.0 41.1 61.4 88.0 88.1 2.6 4.9 3.5 217.0 249.4 0.00 0.9980000 84.4
2021-06-24 11:10:00 89.4 37.9 60.3 89.4 89.4 1.7 5.5 2.8 52.9 188.9 0.00 1.0180000 84.5
2021-06-24 11:15:00 90.2 37.4 60.7 90.2 90.2 1.5 3.0 2.1 122.9 199.3 0.00 0.6600000 84.5
2021-06-24 11:20:00 91.0 36.3 60.5 91.0 91.0 4.9 6.7 4.4 331.0 320.2 0.00 1.1870000 84.6
2021-06-24 11:25:00 89.8 35.5 58.9 89.8 89.8 1.2 4.9 3.2 63.4 38.1 0.00 0.4010000 84.7
2021-06-24 11:30:00 88.2 36.9 58.6 88.2 88.2 6.3 7.6 4.4 334.7 308.4 0.00 0.4580000 84.7
2021-06-24 11:35:00 88.4 36.6 58.5 88.4 88.4 3.1 8.0 5.7 322.4 340.6 0.00 0.4260000 84.8
2021-06-24 11:40:00 87.9 35.6 57.3 87.9 87.9 1.2 6.9 4.0 170.9 13.9 0.00 1.1140000 84.9
2021-06-24 11:45:00 90.1 38.7 61.6 90.1 90.1 3.5 7.8 5.3 311.9 324.3 0.00 1.0640000 85.0
2021-06-24 11:50:00 90.0 33.3 57.3 90.0 90.0 7.2 8.5 5.1 332.7 330.3 0.00 0.8700000 85.1
2021-06-24 11:55:00 89.8 35.3 58.8 89.8 89.8 5.8 8.0 5.8 330.5 333.0 0.00 0.9240000 85.2
2021-06-24 12:00:00 90.7 35.2 59.4 90.7 90.7 3.5 6.7 4.5 96.8 15.4 0.00 0.5360000 85.3
2021-06-24 12:05:00 86.9 31.9 53.4 86.9 86.9 3.5 6.5 4.0 94.1 76.1 0.00 1.1720000 85.4
2021-06-24 12:10:00 91.0 34.4 59.1 91.0 91.0 3.1 5.5 4.0 149.0 96.3 0.00 1.1060000 85.5
2021-06-24 12:15:00 93.5 36.3 62.8 93.5 93.5 5.1 7.6 5.2 104.6 93.8 0.00 0.7980000 85.6
2021-06-24 12:20:00 90.6 33.8 58.2 90.6 90.6 3.5 8.5 6.1 132.1 119.4 0.00 0.6400000 85.7
2021-06-24 12:25:00 90.4 32.9 57.2 90.4 90.4 4.2 6.0 3.2 115.2 136.7 0.00 0.3160000 85.9
2021-06-24 12:30:00 94.0 34.8 62.0 94.0 94.0 2.4 4.7 3.7 135.8 135.6 0.00 1.0100000 86.0
2021-06-24 12:35:00 91.8 30.3 56.3 91.8 91.8 3.3 4.6 2.7 68.4 109.6 0.00 0.6590000 86.1
2021-06-24 12:40:00 93.5 28.6 56.1 93.5 93.5 3.7 5.3 3.1 55.8 34.0 0.00 1.0430000 86.2
2021-06-24 12:45:00 92.1 32.2 58.2 92.1 92.1 4.0 8.1 5.4 125.6 103.4 0.00 0.5770000 86.4
2021-06-24 12:50:00 93.1 33.0 59.7 93.1 93.1 1.2 5.6 2.8 213.5 109.9 0.00 0.5810000 86.5
2021-06-24 12:55:00 94.3 28.4 56.6 94.3 94.3 3.8 5.6 3.1 109.3 91.8 0.00 0.6610000 86.7
2021-06-24 13:00:00 93.2 28.5 55.7 93.2 93.2 5.8 6.3 4.4 103.1 112.1 0.00 0.6370000 86.8
2021-06-24 13:05:00 93.1 29.8 56.9 93.1 93.1 1.5 6.0 2.9 323.0 138.0 0.00 0.4630000 87.0
2021-06-24 13:10:00 93.3 31.1 58.3 93.3 93.3 2.8 4.4 2.8 268.7 290.7 0.00 0.3670000 87.1
2021-06-24 13:15:00 94.2 33.4 61.1 94.2 94.2 1.3 3.1 2.2 40.5 266.2 0.00 0.3530000 87.2
2021-06-24 13:20:00 94.2 27.6 55.8 94.2 94.2 3.5 3.7 2.1 114.0 288.7 0.00 0.3340000 87.4
2021-06-24 13:25:00 95.0 27.6 56.4 95.0 95.0 1.9 3.0 1.9 267.2 229.5 0.00 0.3090000 87.5
2021-06-24 13:30:00 94.2 28.1 56.3 94.2 94.2 2.4 4.4 1.9 99.0 197.9 0.00 0.2870000 87.7
2021-06-24 13:35:00 94.1 28.7 56.6 94.1 94.1 5.6 6.2 4.1 92.0 91.5 0.00 0.2640000 87.8
2021-06-24 13:40:00 93.9 26.9 54.8 93.9 93.9 5.8 6.7 5.3 110.8 94.7 0.00 0.2650000 87.9
2021-06-24 13:45:00 93.5 27.8 55.3 93.5 93.5 3.8 6.7 4.6 67.0 75.9 0.00 0.2720000 88.0
2021-06-24 13:50:00 93.8 28.2 56.0 93.8 93.8 5.8 6.0 3.8 1.7 355.2 0.00 0.2550000 88.1
2021-06-24 13:55:00 93.5 27.9 55.4 93.5 93.5 4.7 6.5 4.6 17.3 349.8 0.00 0.2460000 88.2
2021-06-24 14:00:00 93.7 27.2 54.9 93.7 93.7 3.8 5.5 3.6 313.4 351.5 0.00 0.2340000 88.3
2021-06-24 14:05:00 94.1 26.5 54.5 94.1 94.1 1.9 4.4 2.7 42.6 349.1 0.00 0.2240000 88.4
2021-06-24 14:10:00 93.3 30.9 58.1 93.3 93.3 4.6 6.9 3.6 301.0 319.6 0.00 0.2260000 88.4
2021-06-24 14:15:00 92.9 29.2 56.2 92.9 92.9 1.7 6.3 3.4 0.4 338.4 0.00 0.2350000 88.5
2021-06-24 14:20:00 92.8 33.2 59.6 92.8 92.8 7.2 7.8 4.6 333.9 328.4 0.00 0.2320000 88.6
2021-06-24 14:25:00 92.0 31.1 57.1 92.0 92.0 6.0 7.6 5.4 342.6 335.3 0.00 0.2300000 88.6
2021-06-24 14:30:00 92.4 30.3 56.8 92.4 92.4 4.9 9.4 5.8 346.2 338.0 0.00 0.2390000 88.6
2021-06-24 14:35:00 92.4 29.6 56.1 92.4 92.4 4.2 5.8 4.2 322.1 329.9 0.00 0.2610000 88.7
2021-06-24 14:40:00 93.9 34.9 62.0 93.9 93.9 3.7 5.5 4.2 304.3 329.0 0.00 0.3060000 88.7
2021-06-24 14:45:00 93.4 29.9 57.3 93.4 93.4 4.4 5.5 3.4 7.1 332.3 0.00 0.3800000 88.7
2021-06-24 14:50:00 93.8 30.8 58.5 93.8 93.8 4.7 5.6 4.1 335.2 346.0 0.00 0.3140000 88.8
2021-06-24 14:55:00 93.6 28.9 56.5 93.6 93.6 3.1 6.0 4.4 343.0 337.6 0.00 0.2930000 88.8
2021-06-24 15:00:00 93.4 27.9 55.3 93.4 93.4 2.4 7.8 5.0 24.6 340.6 0.00 0.2710000 88.8
2021-06-24 15:05:00 93.4 30.8 58.1 93.4 93.4 7.6 7.6 4.3 313.1 327.3 0.00 0.2630000 88.8
2021-06-24 15:10:00 92.8 34.8 60.9 92.8 92.8 4.7 7.6 5.7 298.7 314.5 0.00 0.2440000 88.8
2021-06-24 15:15:00 92.5 31.4 57.8 92.5 92.5 6.0 7.4 5.7 300.2 321.9 0.00 0.2310000 88.8
2021-06-24 15:20:00 92.8 29.3 56.2 92.8 92.8 3.0 8.3 5.7 299.3 334.0 0.00 0.2290000 88.8
2021-06-24 15:25:00 93.3 27.3 54.6 93.3 93.3 1.9 4.6 2.6 78.5 347.1 0.00 0.2500000 88.8
2021-06-24 15:30:00 94.2 26.2 54.3 94.2 94.2 4.2 4.7 2.6 81.8 71.8 0.00 0.2760000 88.8
2021-06-24 15:35:00 94.9 28.8 57.5 94.9 94.9 2.8 6.2 4.0 41.6 74.6 0.00 1.0230000 88.8
2021-06-24 15:40:00 97.0 24.9 55.3 97.0 97.0 2.6 6.3 3.3 22.4 56.4 0.00 0.9860000 88.8
2021-06-24 15:45:00 97.1 20.6 50.2 97.1 97.1 2.2 4.2 2.2 106.2 15.6 0.00 0.9710000 88.8
2021-06-24 15:50:00 98.0 22.7 53.5 98.0 98.0 5.1 6.3 3.7 122.7 100.3 0.00 0.8920000 88.8
2021-06-24 15:55:00 98.4 22.8 54.0 98.4 98.4 3.7 4.9 3.1 70.2 86.7 0.00 0.6310000 88.8
2021-06-24 16:00:00 97.5 21.3 51.4 97.5 97.5 2.4 3.7 2.5 69.7 68.7 0.00 0.6920000 88.8
2021-06-24 16:05:00 97.8 21.9 52.4 97.8 97.8 4.9 6.2 4.4 107.6 91.8 0.00 0.3090000 88.8
2021-06-24 16:10:00 97.4 20.7 50.6 97.4 97.4 3.0 6.3 4.2 112.5 103.1 0.00 0.4750000 88.9
2021-06-24 16:15:00 97.6 20.2 50.1 97.6 97.6 5.1 7.4 4.5 36.3 76.0 0.00 0.6330000 88.9
2021-06-24 16:20:00 98.5 21.6 52.5 98.5 98.5 5.8 6.5 3.6 94.1 70.3 0.00 0.4930000 88.9
2021-06-24 16:25:00 98.4 21.1 51.9 98.4 98.4 2.8 6.2 3.6 137.2 98.3 0.00 0.6440000 88.9
2021-06-24 16:30:00 98.8 20.7 51.7 98.8 98.8 2.8 3.3 1.5 117.4 76.0 0.00 0.6220000 89.0
2021-06-24 16:35:00 98.4 20.1 50.5 98.4 98.4 4.4 7.1 4.6 89.6 97.3 0.00 0.6020000 89.0
2021-06-24 16:40:00 98.8 22.6 54.1 98.8 98.8 4.4 6.3 4.6 180.0 146.2 0.00 0.5940000 89.0
2021-06-24 16:45:00 97.8 20.8 51.0 97.8 97.8 4.6 7.8 6.1 200.4 225.8 0.00 0.5680000 89.1
2021-06-24 16:50:00 98.3 21.1 51.8 98.3 98.3 4.9 7.2 4.6 232.3 283.5 0.00 0.5610000 89.1
2021-06-24 16:55:00 98.3 25.4 57.0 98.3 98.3 2.4 7.2 3.7 208.8 206.4 0.00 0.5360000 89.2
2021-06-24 17:00:00 98.8 20.9 51.9 98.8 98.8 1.3 5.8 2.9 320.2 250.5 0.00 0.5230000 89.2
2021-06-24 17:05:00 99.9 18.2 49.2 99.9 99.9 1.9 3.0 1.7 203.7 216.1 0.00 0.5090000 89.2
2021-06-24 17:10:00 98.8 22.4 53.9 98.8 98.8 6.3 7.1 4.7 218.1 201.9 0.00 0.4920000 89.3
2021-06-24 17:15:00 97.1 24.7 55.1 97.1 97.1 3.1 6.7 5.2 229.0 218.0 0.00 0.4730000 89.3
2021-06-24 17:20:00 98.0 24.0 55.1 98.0 98.0 5.3 6.9 3.8 194.0 229.5 0.00 0.4600000 89.4
2021-06-24 17:25:00 98.6 19.1 49.4 98.6 98.6 2.2 5.5 2.7 120.3 201.7 0.00 0.4340000 89.4
2021-06-24 17:30:00 98.9 22.8 54.5 98.9 98.9 4.2 5.6 2.6 210.4 204.6 0.00 0.4160000 89.5
2021-06-24 17:35:00 99.1 26.4 58.7 99.1 99.1 6.5 6.5 3.3 220.6 223.9 0.00 0.1480000 89.5
2021-06-24 17:40:00 97.7 25.6 56.6 97.7 97.7 3.1 8.3 5.4 136.5 188.2 0.00 0.0820000 89.6
2021-06-24 17:45:00 98.8 20.1 50.9 98.8 98.8 4.6 6.5 5.4 86.9 107.3 0.00 0.0880000 89.6
2021-06-24 17:50:00 99.5 20.7 52.3 99.5 99.5 5.5 6.7 5.1 98.3 108.8 0.00 0.1070000 89.7
2021-06-24 17:55:00 99.5 18.8 49.7 99.5 99.5 4.0 6.5 4.8 127.2 135.4 0.00 0.3330000 89.7
2021-06-24 18:00:00 99.8 17.1 47.5 99.8 99.8 5.8 7.8 5.6 128.5 130.6 0.00 0.3690000 89.8
2021-06-24 18:05:00 99.9 18.7 49.8 99.9 99.9 4.6 4.9 3.4 63.0 119.0 0.00 0.4340000 89.8
2021-06-24 18:10:00 99.9 19.7 51.3 99.9 99.9 9.0 9.0 5.7 91.2 97.6 0.00 0.1910000 89.8
2021-06-24 18:15:00 96.6 26.3 56.4 96.6 96.6 17.8 19.0 13.4 116.4 110.4 0.00 0.1480000 89.9
2021-06-24 18:20:00 94.4 28.4 56.7 94.4 94.4 14.2 21.2 18.0 103.2 115.6 0.00 0.0720000 89.9
2021-06-24 18:25:00 94.0 27.3 55.2 94.0 94.0 12.8 23.7 16.5 128.2 115.8 0.00 0.0580000 90.0
2021-06-24 18:30:00 93.5 26.9 54.4 93.5 93.5 17.2 18.9 16.2 114.0 124.5 0.00 0.0630000 90.0
2021-06-24 18:35:00 92.7 28.9 55.7 92.7 92.7 15.1 18.7 15.2 114.6 116.9 0.00 0.1470000 90.0
2021-06-24 18:40:00 92.6 27.7 54.5 92.6 92.6 16.0 19.0 15.7 103.8 114.8 0.00 0.0430000 90.0
2021-06-24 18:45:00 93.0 26.9 53.9 93.0 93.0 16.9 19.2 16.0 116.0 114.4 0.00 0.0500000 90.1
2021-06-24 18:50:00 92.9 27.8 54.8 92.9 92.9 13.7 19.9 15.5 104.2 120.8 0.00 0.0460000 90.1
2021-06-24 18:55:00 92.1 28.3 54.6 92.1 92.1 16.0 17.6 15.1 116.4 114.4 0.00 0.0390000 90.1
2021-06-24 19:00:00 92.0 28.1 54.4 92.0 92.0 15.3 17.6 14.1 127.2 120.0 0.00 0.0510000 90.1
2021-06-24 19:05:00 92.0 28.8 55.0 92.0 92.0 11.7 17.1 13.7 115.3 114.9 0.00 0.0590000 90.1
2021-06-24 19:10:00 92.1 29.1 55.4 92.1 92.1 10.6 14.9 11.3 104.4 117.4 0.00 0.1370000 90.1
2021-06-24 19:15:00 92.3 29.0 55.5 92.3 92.3 12.8 12.8 10.5 129.2 116.9 0.00 0.1240000 90.1
2021-06-24 19:20:00 92.7 28.2 55.0 92.7 92.7 12.6 14.0 11.5 119.5 121.7 0.00 0.1150000 90.1
2021-06-24 19:25:00 92.9 27.1 54.2 92.9 92.9 13.5 14.6 12.0 116.4 121.2 0.00 0.0900000 90.1

Data is courtesy of the NM Climate Center. DO NOT USE IN LEGAL PROCEEDINGS.